Time;durP1;ratioP1;P1;durP2;ratioP2;P2;SDS_P1;SDS_P2;PMS_P1;PMS_P2;Temp;Humidity;BMP_temperature;BMP_pressure;BME280_temperature;BME280_humidity;BME280_pressure;Samples;Min_cycle;Max_cycle;Signal;HPM_P1;HPM_P2
2022/01/19 00:00:30;;;;;;;4.57;1.88;;;;;;;-2.68;71.72;95933.22;5140772;27;20208;-79
2022/01/19 00:02:57;;;;;;;3.75;1.92;;;;;;;-2.68;71.91;95946.47;5154599;27;20200;-78
2022/01/19 00:05:24;;;;;;;2.50;1.27;;;;;;;-2.63;71.51;95934.22;5155283;27;20269;-79
2022/01/19 00:07:51;;;;;;;2.10;1.30;;;;;;;-2.72;71.80;95929.34;5154972;27;20535;-79
2022/01/19 00:10:26;;;;;;;7.13;2.30;;;;;;;-2.63;71.20;95933.41;5154837;27;20204;-79
2022/01/19 00:12:54;;;;;;;6.57;2.13;;;;;;;-2.66;71.47;95957.69;5154211;27;20288;-78
2022/01/19 00:15:22;;;;;;;5.05;1.90;;;;;;;-2.59;72.10;95956.59;5154664;27;20244;-79
2022/01/19 00:17:49;;;;;;;2.55;1.45;;;;;;;-2.66;71.49;95961.16;5153660;27;20236;-80
2022/01/19 00:20:16;;;;;;;1.50;1.15;;;;;;;-2.69;70.93;95960.75;5155658;27;20204;-77
2022/01/19 00:22:43;;;;;;;3.50;1.40;;;;;;;-2.70;70.87;95964.41;5154964;27;20223;-80
2022/01/19 00:25:10;;;;;;;7.50;2.40;;;;;;;-2.77;71.60;95968.97;5155388;27;20612;-79
2022/01/19 00:27:39;;;;;;;4.47;2.00;;;;;;;-2.93;71.93;95955.16;5155445;27;20200;-79
2022/01/19 00:30:08;;;;;;;3.78;1.73;;;;;;;-2.76;71.67;95965.28;5155023;27;20204;-78
2022/01/19 00:32:34;;;;;;;3.22;2.08;;;;;;;-2.78;72.19;95972.63;5154766;27;20695;-79
2022/01/19 00:35:02;;;;;;;2.10;1.38;;;;;;;-2.87;72.14;95970.19;5155143;27;20224;-79
2022/01/19 00:37:29;;;;;;;22.88;2.42;;;;;;;-2.80;71.83;95974.69;5155130;27;20200;-78
2022/01/19 00:39:56;;;;;;;4.22;2.50;;;;;;;-2.76;71.71;95976.72;5155179;27;20203;-79
2022/01/19 00:42:23;;;;;;;6.00;2.03;;;;;;;-2.83;72.01;95986.50;5154381;27;20232;-79
2022/01/19 00:44:51;;;;;;;5.45;1.73;;;;;;;-2.78;72.74;95977.94;5154787;27;20199;-79
2022/01/19 00:47:18;;;;;;;1.90;1.67;;;;;;;-2.77;72.00;95987.53;5154947;27;20193;-79
2022/01/19 00:49:45;;;;;;;2.38;0.93;;;;;;;-2.76;71.95;95982.00;5154345;27;20216;-80
2022/01/19 00:52:12;;;;;;;4.47;2.25;;;;;;;-2.75;72.32;95982.81;5154713;27;20193;-80
2022/01/19 00:54:40;;;;;;;11.02;2.63;;;;;;;-2.75;71.89;96001.38;5154734;27;20236;-79
2022/01/19 00:57:07;;;;;;;4.30;2.10;;;;;;;-2.80;72.15;96011.78;5154677;27;20197;-79
2022/01/19 00:59:34;;;;;;;4.25;1.75;;;;;;;-2.79;72.41;96006.28;5154372;27;20828;-77
2022/01/19 01:02:04;;;;;;;4.18;1.95;;;;;;;-2.77;72.63;96003.44;5154484;27;20213;-79
2022/01/19 01:04:32;;;;;;;10.07;1.95;;;;;;;-2.78;72.22;96004.44;5153872;27;20685;-78
2022/01/19 01:06:59;;;;;;;4.95;2.22;;;;;;;-2.72;72.60;95998.28;5154491;27;20566;-79
2022/01/19 01:09:26;;;;;;;4.22;2.33;;;;;;;-2.68;72.22;96016.22;5153742;27;20227;-79
2022/01/19 01:12:00;;;;;;;6.97;2.60;;;;;;;-2.71;73.34;96021.13;5154248;27;20200;-79
2022/01/19 01:19:58;;;;;;;3.78;2.13;;;;;;;-2.86;72.98;96003.66;5152866;27;20697;-79
2022/01/19 01:22:25;;;;;;;4.55;1.88;;;;;;;-2.87;72.95;96009.97;5153490;27;20212;-80
2022/01/19 01:24:52;;;;;;;6.68;2.05;;;;;;;-2.80;73.51;96003.84;5153970;27;20655;-79
2022/01/19 01:27:19;;;;;;;8.02;2.42;;;;;;;-2.95;73.33;96015.50;5154370;27;20196;-79
2022/01/19 01:29:46;;;;;;;3.92;1.85;;;;;;;-3.03;73.44;96007.00;5153680;27;20234;-80
2022/01/19 01:32:13;;;;;;;6.47;2.58;;;;;;;-3.07;73.89;95995.97;5153553;27;20555;-79
2022/01/19 01:34:41;;;;;;;2.22;1.55;;;;;;;-3.09;74.26;95978.66;5153944;27;20235;-79
2022/01/19 01:37:08;;;;;;;1.90;1.10;;;;;;;-3.16;73.69;95984.00;5154185;27;20200;-79
2022/01/19 01:39:35;;;;;;;5.57;2.05;;;;;;;-2.96;73.76;95990.03;5139562;27;20208;-78
2022/01/19 01:42:09;;;;;;;1.65;1.42;;;;;;;-2.95;73.64;95978.41;5153802;27;20269;-78
2022/01/19 01:44:36;;;;;;;2.55;1.55;;;;;;;-3.03;73.71;95991.91;5153647;27;20273;-77
2022/01/19 01:47:04;;;;;;;3.83;2.03;;;;;;;-3.08;73.33;95981.09;5153853;27;20227;-79
2022/01/19 01:49:44;;;;;;;5.35;2.20;;;;;;;-3.04;73.42;95984.97;5153351;27;20220;-80
2022/01/19 01:54:57;;;;;;;4.05;2.33;;;;;;;-3.09;73.98;95982.13;5153519;27;20308;-78
2022/01/19 01:57:24;;;;;;;4.55;2.00;;;;;;;-3.08;73.47;95977.63;5154003;27;20219;-79
2022/01/19 01:59:51;;;;;;;3.17;1.67;;;;;;;-3.11;72.97;95975.41;5153271;27;20192;-79
2022/01/19 02:02:18;;;;;;;3.42;2.10;;;;;;;-3.03;73.47;95970.69;5152835;27;20224;-79
2022/01/19 02:04:45;;;;;;;7.00;1.85;;;;;;;-3.02;73.41;95967.03;5152994;27;20204;-79
2022/01/19 02:10:01;;;;;;;10.63;2.67;;;;;;;-3.13;73.00;95949.09;5152685;27;20199;-80
2022/01/19 02:23:35;;;;;;;5.85;1.90;;;;;;;-3.08;73.07;95933.41;5140716;27;20310;-80
2022/01/19 02:26:11;;;;;;;7.18;2.70;;;;;;;-3.09;72.37;95936.25;5153108;27;20193;-78
2022/01/19 02:29:03;;;;;;;5.25;1.75;;;;;;;-3.15;72.85;95935.28;5153154;27;20269;-80
2022/01/19 02:40:15;;;;;;;10.55;4.65;;;;;;;-3.06;72.90;95918.13;5105920;28;20718;-79
2022/01/19 02:42:54;;;;;;;7.43;4.13;;;;;;;-3.07;72.04;95915.66;5107011;28;20225;-79
2022/01/19 02:50:55;;;;;;;10.65;3.63;;;;;;;-2.95;71.68;95919.28;5069221;28;20225;-80
2022/01/19 02:53:22;;;;;;;8.68;3.58;;;;;;;-2.91;70.74;95926.59;5108436;28;20599;-81
2022/01/19 02:55:48;;;;;;;13.75;4.47;;;;;;;-2.94;71.56;95918.25;5108279;28;20270;-79
2022/01/19 02:58:20;;;;;;;9.43;3.97;;;;;;;-3.02;71.73;95908.72;5108326;28;20204;-79
2022/01/19 03:09:00;;;;;;;6.38;3.47;;;;;;;-2.87;71.64;95927.78;5095158;28;20209;-82
2022/01/19 03:11:28;;;;;;;9.75;4.03;;;;;;;-2.79;71.10;95917.97;5108246;28;20210;-80
2022/01/19 03:13:55;;;;;;;8.77;4.00;;;;;;;-3.11;70.95;95872.88;5108074;28;20229;-81
2022/01/19 03:16:23;;;;;;;4.80;2.30;;;;;;;-3.11;70.86;95856.97;5108139;28;20280;-79
2022/01/19 03:18:51;;;;;;;4.10;1.58;;;;;;;-3.02;71.42;95874.28;5108294;28;20202;-81
2022/01/19 03:21:22;;;;;;;4.32;2.38;;;;;;;-3.06;70.33;95859.81;5108081;28;20308;-80
2022/01/19 03:23:49;;;;;;;3.00;1.30;;;;;;;-3.07;70.70;95874.09;5108617;28;20534;-79
2022/01/19 03:26:16;;;;;;;1.02;0.93;;;;;;;-3.05;70.52;95880.00;5107802;28;20281;-79
2022/01/19 03:28:43;;;;;;;3.30;1.50;;;;;;;-3.10;70.50;95863.91;5108208;28;20664;-79
2022/01/19 03:31:10;;;;;;;2.58;1.48;;;;;;;-3.09;70.40;95881.44;5107946;28;20703;-79
2022/01/19 03:33:38;;;;;;;6.47;2.15;;;;;;;-2.99;70.61;95908.28;5107216;28;20256;-78
2022/01/19 03:36:07;;;;;;;2.42;1.50;;;;;;;-2.82;70.81;95913.09;5094478;28;20202;-80
2022/01/19 03:38:36;;;;;;;6.47;2.15;;;;;;;-2.72;70.77;95892.22;5108160;28;20282;-78
2022/01/19 03:41:03;;;;;;;5.10;2.33;;;;;;;-2.69;70.32;95902.41;5106918;28;20700;-80
2022/01/19 03:43:30;;;;;;;5.78;3.10;;;;;;;-2.70;69.80;95906.91;5107925;28;20652;-79
2022/01/19 03:46:13;;;;;;;3.72;1.80;;;;;;;-2.57;70.21;95916.63;5093195;28;20249;-82
2022/01/19 03:48:45;;;;;;;4.07;2.08;;;;;;;-2.57;69.92;95921.91;5094291;28;20221;-79
2022/01/19 03:51:13;;;;;;;4.60;1.48;;;;;;;-2.51;69.54;95931.69;5093942;28;20591;-79
2022/01/19 03:53:42;;;;;;;8.63;1.80;;;;;;;-2.57;70.14;95921.91;5093939;28;20238;-81
2022/01/19 03:56:09;;;;;;;3.40;1.70;;;;;;;-2.60;69.97;95919.72;5093785;28;20688;-80
2022/01/19 03:58:37;;;;;;;3.58;1.40;;;;;;;-2.70;69.73;95930.75;5093682;28;20194;-80
2022/01/19 04:01:05;;;;;;;3.55;2.38;;;;;;;-2.87;70.25;95905.81;5093575;28;20198;-81
2022/01/19 04:03:57;;;;;;;5.78;2.05;;;;;;;-2.70;69.95;95927.31;5094078;28;20202;-80
2022/01/19 04:06:27;;;;;;;2.90;1.25;;;;;;;-2.90;70.03;95912.34;5093675;28;20203;-80
2022/01/19 04:08:56;;;;;;;2.80;1.50;;;;;;;-2.94;69.74;95895.22;5094168;28;20210;-78
2022/01/19 04:11:25;;;;;;;3.78;1.17;;;;;;;-2.70;69.95;95937.91;5093323;28;20669;-79
2022/01/19 04:14:21;;;;;;;3.75;2.22;;;;;;;-2.92;69.65;95908.25;5094061;28;20228;-80
2022/01/19 04:16:46;;;;;;;2.83;2.13;;;;;;;-2.78;69.83;95938.97;5092738;28;20236;-80
2022/01/19 04:19:23;;;;;;;3.85;1.92;;;;;;;-2.80;70.01;95948.97;5093182;28;20224;-79
2022/01/19 04:21:50;;;;;;;6.25;2.05;;;;;;;-2.83;69.40;95937.97;5093294;28;20186;-80
2022/01/19 04:24:20;;;;;;;2.28;1.42;;;;;;;-2.66;69.66;95949.72;5093437;28;20206;-80
2022/01/19 04:26:56;;;;;;;4.28;1.98;;;;;;;-2.70;69.11;95936.06;5093192;28;20206;-80
2022/01/19 04:29:24;;;;;;;4.82;2.35;;;;;;;-2.87;69.26;95909.22;5093346;28;20190;-81
2022/01/19 04:31:51;;;;;;;4.43;1.75;;;;;;;-2.60;68.72;95964.81;5092998;28;20242;-80
2022/01/19 04:34:19;;;;;;;3.75;1.35;;;;;;;-2.51;69.03;95963.50;5092815;28;20755;-80
2022/01/19 04:37:22;;;;;;;4.15;1.83;;;;;;;-2.59;69.10;95966.41;5092918;28;20229;-80
2022/01/19 04:45:51;;;;;;;4.28;1.45;;;;;;;-2.72;68.80;95963.81;5092922;28;20239;-81
2022/01/19 05:02:14;;;;;;;2.30;1.85;;;;;;;-2.82;69.41;95976.72;5092322;28;20197;-80
2022/01/19 05:04:51;;;;;;;4.18;2.10;;;;;;;-2.75;69.65;95993.44;5091908;28;20218;-77
2022/01/19 05:07:23;;;;;;;2.13;1.50;;;;;;;-2.59;69.02;95992.91;5092402;28;20208;-79
2022/01/19 05:13:23;;;;;;;3.92;1.85;;;;;;;-2.72;69.29;95993.81;5093002;28;20232;-78
2022/01/19 05:15:34;;;;;;;1.50;1.35;;;;;;;-2.73;69.14;96007.28;5091267;28;20259;-81
2022/01/19 05:18:02;;;;;;;4.32;1.70;;;;;;;-2.88;69.60;96003.06;5091605;28;20665;-80
2022/01/19 05:20:30;;;;;;;4.32;1.95;;;;;;;-2.83;69.71;95997.13;5092082;28;20203;-80
2022/01/19 05:22:57;;;;;;;7.15;1.77;;;;;;;-2.86;69.66;95997.53;5092392;28;20203;-79
2022/01/19 05:25:24;;;;;;;3.47;1.65;;;;;;;-2.82;69.79;95987.31;5081196;28;20741;-79
2022/01/19 05:27:52;;;;;;;2.25;1.27;;;;;;;-2.69;69.36;95998.69;5089920;28;20210;-81
2022/01/19 05:30:19;;;;;;;4.18;1.80;;;;;;;-2.69;69.41;96005.81;5091853;28;20205;-79
2022/01/19 05:32:46;;;;;;;3.83;1.55;;;;;;;-2.67;69.35;96004.59;5091795;28;20230;-79
2022/01/19 05:35:13;;;;;;;4.78;1.92;;;;;;;-2.60;69.61;96015.19;5092435;28;20229;-79
2022/01/19 05:37:41;;;;;;;1.88;1.42;;;;;;;-2.60;69.73;96017.84;5078070;28;20206;-79
2022/01/19 05:40:09;;;;;;;4.38;1.88;;;;;;;-2.69;69.90;96016.44;5091774;28;20279;-79
2022/01/19 05:42:37;;;;;;;4.32;1.95;;;;;;;-2.69;69.89;96030.50;5091834;28;20206;-79
2022/01/19 05:45:06;;;;;;;2.78;1.90;;;;;;;-2.76;70.13;96028.91;5089420;28;20206;-80
2022/01/19 05:47:33;;;;;;;8.98;1.63;;;;;;;-2.76;70.45;96024.44;5070068;28;20227;-79
2022/01/19 05:50:00;;;;;;;6.68;2.13;;;;;;;-2.73;71.00;96034.59;5069622;28;20213;-79
2022/01/19 05:52:27;;;;;;;6.65;2.05;;;;;;;-2.78;70.82;96041.56;5069938;28;20672;-80
2022/01/19 05:54:54;;;;;;;5.55;2.28;;;;;;;-2.79;71.42;96050.53;5083868;28;20226;-78
2022/01/19 05:57:21;;;;;;;7.38;3.55;;;;;;;-2.71;72.34;96058.25;5091186;28;20688;-79
2022/01/19 05:59:48;;;;;;;4.32;1.98;;;;;;;-2.77;71.89;96064.41;5091584;28;20201;-78
2022/01/19 06:02:17;;;;;;;4.07;2.60;;;;;;;-2.75;72.43;96057.06;5087956;28;20234;-77
2022/01/19 06:04:44;;;;;;;5.07;2.28;;;;;;;-2.80;72.38;96054.22;5090038;28;20222;-80
2022/01/19 06:07:12;;;;;;;1.73;1.48;;;;;;;-2.72;72.72;96059.28;5086782;28;20198;-78
2022/01/19 06:09:49;;;;;;;2.63;1.83;;;;;;;-2.68;72.66;96057.84;5086940;28;20203;-80
2022/01/19 06:12:17;;;;;;;5.70;2.70;;;;;;;-2.69;72.06;96051.72;5090476;28;20186;-79
2022/01/19 06:14:48;;;;;;;8.88;3.28;;;;;;;-2.60;72.43;96050.47;5077370;28;20608;-79
2022/01/19 06:17:16;;;;;;;5.22;2.35;;;;;;;-2.56;72.27;96058.81;5089685;28;20190;-78
2022/01/19 06:19:44;;;;;;;5.22;2.75;;;;;;;-2.38;71.99;96053.63;5084372;28;20562;-81
2022/01/19 06:22:11;;;;;;;12.00;2.55;;;;;;;-2.13;70.75;96050.25;5090015;28;20213;-82
2022/01/19 06:24:38;;;;;;;3.58;2.50;;;;;;;-1.76;70.02;96054.69;5091249;28;20194;-81
2022/01/19 06:27:05;;;;;;;2.55;1.90;;;;;;;-0.43;85.99;96063.03;5090901;28;20209;-82
2022/01/19 06:29:32;;;;;;;5.95;2.22;;;;;;;-0.08;72.25;96064.00;5090576;28;20198;-83
2022/01/19 06:32:00;;;;;;;6.43;3.35;;;;;;;0.89;74.46;96055.78;5090256;28;20701;-80
2022/01/19 06:34:28;;;;;;;6.22;2.88;;;;;;;0.47;71.27;96047.84;5090672;28;20225;-82
2022/01/19 06:36:57;;;;;;;6.57;2.35;;;;;;;-0.47;65.18;96056.53;5091277;28;20245;-79
2022/01/19 06:39:24;;;;;;;3.63;2.05;;;;;;;-0.83;66.56;96062.69;5090386;28;20233;-80
2022/01/19 06:41:51;;;;;;;13.25;4.07;;;;;;;-1.11;67.25;96065.81;5090456;28;20201;-80
2022/01/19 06:44:18;;;;;;;9.00;2.65;;;;;;;-1.19;67.64;96063.44;5090542;28;20194;-79
2022/01/19 06:46:45;;;;;;;5.35;2.17;;;;;;;-1.07;68.29;96077.63;5090784;28;20236;-81
2022/01/19 06:49:12;;;;;;;3.92;2.58;;;;;;;-1.10;68.08;96075.44;5087519;28;20203;-81
2022/01/19 06:51:40;;;;;;;6.03;2.58;;;;;;;-1.22;68.29;96074.50;5088465;28;20230;-79
2022/01/19 06:54:07;;;;;;;4.53;1.92;;;;;;;-1.41;68.54;96070.19;5085714;28;20226;-78
2022/01/19 06:56:37;;;;;;;4.80;2.42;;;;;;;-1.29;68.95;96079.06;5088135;28;20628;-81
2022/01/19 06:59:05;;;;;;;6.03;3.45;;;;;;;-1.57;69.51;96056.41;5074982;28;20240;-74
2022/01/19 07:01:33;;;;;;;4.43;2.85;;;;;;;-1.57;69.31;96055.59;5085797;28;20229;-78
2022/01/19 07:04:02;;;;;;;7.95;3.90;;;;;;;-1.52;70.35;96069.03;5080139;28;20222;-79
2022/01/19 07:06:29;;;;;;;2.40;1.67;;;;;;;-1.45;69.88;96067.94;5084361;28;20282;-79
2022/01/19 07:08:59;;;;;;;8.80;2.35;;;;;;;-1.30;69.52;96057.00;5086038;28;20198;-79
2022/01/19 07:11:26;;;;;;;4.47;2.53;;;;;;;-1.37;69.23;96055.44;5083918;28;20217;-80
2022/01/19 07:13:53;;;;;;;6.15;2.50;;;;;;;-1.34;68.49;96041.69;5087898;28;20226;-78
2022/01/19 07:16:20;;;;;;;5.85;3.40;;;;;;;-1.35;69.42;96032.09;5084719;28;20409;-80
2022/01/19 07:18:46;;;;;;;7.70;2.65;;;;;;;-1.30;69.27;96024.28;5089939;28;20202;-78
2022/01/19 07:21:13;;;;;;;6.40;2.55;;;;;;;-1.16;68.65;96031.91;5091105;28;20676;-80
2022/01/19 07:23:40;;;;;;;10.60;2.65;;;;;;;-1.17;68.74;96034.78;5090960;28;20209;-79
2022/01/19 07:26:11;;;;;;;5.10;3.25;;;;;;;-1.24;68.90;96024.22;5093521;28;20271;-81
2022/01/19 07:28:38;;;;;;;5.25;2.65;;;;;;;-1.14;68.94;96029.03;5092961;28;20667;-81
2022/01/19 07:31:05;;;;;;;11.43;3.10;;;;;;;-0.95;67.79;96025.34;5093918;28;20238;-80
2022/01/19 07:33:32;;;;;;;7.13;3.58;;;;;;;-1.03;67.70;96030.97;5093272;28;20226;-82
2022/01/19 07:35:59;;;;;;;5.88;2.97;;;;;;;-1.00;68.56;96032.38;5093622;28;20231;-81
2022/01/19 07:38:27;;;;;;;3.75;2.05;;;;;;;-1.11;68.30;96031.25;5093717;28;20222;-79
2022/01/19 07:40:54;;;;;;;8.48;3.60;;;;;;;-0.81;67.78;96029.47;5093327;28;20210;-81
2022/01/19 07:43:24;;;;;;;6.65;3.15;;;;;;;-0.78;67.01;96034.38;5094034;28;20313;-79
2022/01/19 07:45:51;;;;;;;3.60;2.10;;;;;;;-0.53;67.00;96030.81;5093678;28;20294;-82
2022/01/19 07:48:18;;;;;;;9.30;3.45;;;;;;;-0.49;67.28;96037.31;5093771;28;20278;-83
2022/01/19 07:50:46;;;;;;;6.03;2.03;;;;;;;-0.46;66.32;96031.56;5093438;28;20739;-79
2022/01/19 07:53:13;;;;;;;3.50;2.10;;;;;;;-0.43;65.96;96039.09;5093785;28;20732;-80
2022/01/19 07:55:42;;;;;;;15.75;3.45;;;;;;;-0.53;66.31;96017.50;5093431;28;20230;-78
2022/01/19 07:58:09;;;;;;;6.70;3.50;;;;;;;-0.56;66.50;96031.28;5093994;28;20236;-80
2022/01/19 08:00:38;;;;;;;7.57;2.95;;;;;;;-0.58;66.61;96041.31;5080093;28;20209;-83
2022/01/19 08:03:05;;;;;;;4.45;2.60;;;;;;;-0.27;65.57;96040.31;5092824;28;20222;-79
2022/01/19 08:05:32;;;;;;;6.88;3.38;;;;;;;-0.52;66.14;96032.44;5093093;28;20268;-80
2022/01/19 08:07:59;;;;;;;7.53;2.90;;;;;;;-0.53;66.62;96036.13;5092976;28;20209;-79
2022/01/19 08:10:28;;;;;;;7.88;2.83;;;;;;;-0.10;65.64;96039.47;5093133;28;20202;-79
2022/01/19 08:12:55;;;;;;;5.60;3.28;;;;;;;0.11;64.63;96032.00;5093268;28;20245;-81
2022/01/19 08:15:22;;;;;;;8.07;3.60;;;;;;;0.10;63.91;96030.38;5093149;28;20230;-77
2022/01/19 08:17:50;;;;;;;5.75;2.38;;;;;;;0.28;63.51;96023.13;5092681;28;20226;-78
2022/01/19 08:20:18;;;;;;;10.85;3.80;;;;;;;0.71;63.09;96033.50;5093205;28;20195;-80
2022/01/19 08:22:45;;;;;;;6.65;2.38;;;;;;;0.90;61.61;96041.41;5093250;28;20194;-79
2022/01/19 08:25:12;;;;;;;3.60;1.83;;;;;;;0.77;61.47;96037.09;5093184;28;20198;-85
2022/01/19 08:27:38;;;;;;;9.30;3.60;;;;;;;0.83;61.44;96030.00;5086112;28;20850;-80
2022/01/19 08:30:08;;;;;;;6.75;2.47;;;;;;;0.96;60.86;96029.78;5082970;28;20612;-79
2022/01/19 08:32:35;;;;;;;4.95;2.38;;;;;;;1.00;60.31;96012.28;5089013;28;20237;-80
2022/01/19 08:35:04;;;;;;;7.90;3.25;;;;;;;1.28;60.11;96028.38;5090471;28;20269;-80
2022/01/19 08:37:32;;;;;;;15.02;2.92;;;;;;;1.32;59.81;96032.22;5092193;28;20693;-78
2022/01/19 08:39:59;;;;;;;10.63;2.25;;;;;;;1.57;59.56;96020.41;5092566;28;20275;-80
2022/01/19 08:42:26;;;;;;;3.58;2.30;;;;;;;1.32;59.29;96024.19;5091893;28;20548;-78
2022/01/19 08:44:54;;;;;;;15.88;2.10;;;;;;;1.31;59.41;96011.91;5091869;28;20222;-78
2022/01/19 08:47:21;;;;;;;10.43;2.45;;;;;;;1.05;59.87;96028.41;5092370;28;20198;-76
2022/01/19 08:49:48;;;;;;;4.05;2.35;;;;;;;1.10;59.43;96009.81;5080999;28;20211;-80
2022/01/19 08:52:18;;;;;;;4.05;2.20;;;;;;;1.12;59.31;96022.94;5090771;28;20206;-79
2022/01/19 08:54:46;;;;;;;10.13;2.08;;;;;;;1.41;58.26;96003.28;5092365;28;20275;-79
2022/01/19 08:57:13;;;;;;;13.93;2.97;;;;;;;1.51;58.78;96021.34;5091786;28;20617;-76
2022/01/19 08:59:40;;;;;;;5.28;2.20;;;;;;;1.34;57.53;96015.97;5092618;28;20206;-80
2022/01/19 09:02:07;;;;;;;2.53;1.90;;;;;;;0.98;58.71;96009.03;5092085;28;20230;-77
2022/01/19 09:04:34;;;;;;;4.07;2.13;;;;;;;0.71;59.81;96017.50;5092314;28;20202;-79
2022/01/19 09:07:01;;;;;;;2.05;1.50;;;;;;;0.78;59.40;96011.25;5092879;28;20213;-78
2022/01/19 09:09:29;;;;;;;5.07;2.00;;;;;;;0.56;60.39;95997.66;5092522;28;20211;-76
2022/01/19 09:11:56;;;;;;;5.35;2.40;;;;;;;0.75;59.56;96011.72;5071606;28;20223;-78
2022/01/19 09:14:23;;;;;;;8.98;1.80;;;;;;;0.99;58.88;95981.31;5084746;28;20242;-77
2022/01/19 09:16:50;;;;;;;9.25;2.08;;;;;;;0.97;59.60;95999.41;5078576;28;20226;-79
2022/01/19 09:19:17;;;;;;;4.97;2.05;;;;;;;0.88;59.21;95995.47;5091688;28;20236;-76
2022/01/19 09:21:44;;;;;;;4.80;2.60;;;;;;;0.73;59.13;96003.94;5081928;28;20258;-75
2022/01/19 09:24:11;;;;;;;7.45;2.85;;;;;;;0.79;59.19;95991.53;5085446;28;20283;-79
2022/01/19 09:26:39;;;;;;;6.40;2.65;;;;;;;0.74;59.07;95986.09;5091440;28;20206;-78
2022/01/19 09:29:06;;;;;;;4.47;2.38;;;;;;;0.74;58.99;95991.41;5089898;28;20226;-78
2022/01/19 09:31:34;;;;;;;4.80;2.30;;;;;;;0.50;59.10;95982.59;5091680;28;20202;-77
2022/01/19 09:34:08;;;;;;;3.10;1.90;;;;;;;0.62;59.01;95970.09;5088923;28;20266;-76
2022/01/19 09:36:36;;;;;;;5.70;1.75;;;;;;;0.89;59.11;95970.41;5080005;28;20261;-78
2022/01/19 09:39:06;;;;;;;7.15;2.85;;;;;;;1.29;58.15;95971.28;5088043;28;20226;-79
2022/01/19 09:41:33;;;;;;;3.53;2.00;;;;;;;1.23;57.98;95974.09;5081537;28;20198;-78
2022/01/19 09:44:01;;;;;;;6.30;2.72;;;;;;;1.28;57.16;95969.66;5090546;28;20229;-77
2022/01/19 09:46:29;;;;;;;4.07;2.50;;;;;;;1.20;57.22;95956.69;5091293;28;20209;-78
2022/01/19 09:48:56;;;;;;;20.70;3.17;;;;;;;1.25;58.31;95956.78;5087423;28;20411;-77
2022/01/19 09:51:23;;;;;;;7.95;2.17;;;;;;;1.56;57.28;95949.38;5082262;28;20198;-78
2022/01/19 09:53:51;;;;;;;2.03;1.52;;;;;;;1.47;56.37;95950.81;5091442;28;20228;-76
2022/01/19 09:56:20;;;;;;;3.58;1.85;;;;;;;0.92;57.61;95960.09;5090658;28;20233;-77
2022/01/19 09:58:47;;;;;;;2.72;1.73;;;;;;;1.09;57.30;95954.88;5085828;28;20248;-77
2022/01/19 10:01:19;;;;;;;5.80;2.33;;;;;;;0.98;58.74;95950.34;5079289;28;20242;-79
2022/01/19 10:03:46;;;;;;;4.55;2.10;;;;;;;0.90;57.08;95956.03;5082003;28;20198;-78
2022/01/19 10:06:16;;;;;;;6.75;2.72;;;;;;;1.10;58.65;95939.63;5089255;28;20202;-78
2022/01/19 10:08:44;;;;;;;10.63;2.70;;;;;;;0.92;58.21;95945.94;5087911;28;20204;-79
2022/01/19 10:11:17;;;;;;;26.05;9.23;;;;;;;1.03;57.40;95942.44;5090037;28;20226;-77
2022/01/19 10:19:21;;;;;;;10.63;3.58;;;;;;;0.43;59.61;95928.59;5090292;28;20343;-78
2022/01/19 10:22:13;;;;;;;5.38;2.50;;;;;;;0.76;59.71;95933.34;5077826;28;20665;-78
2022/01/19 10:24:50;;;;;;;8.25;3.50;;;;;;;0.83;59.41;95923.34;5080551;28;20210;-76
2022/01/19 10:27:36;;;;;;;6.47;3.13;;;;;;;0.89;58.93;95927.75;5090635;28;20218;-78
2022/01/19 10:30:18;;;;;;;10.35;3.47;;;;;;;0.82;59.64;95927.06;5079198;28;20198;-78
2022/01/19 10:32:50;;;;;;;5.07;2.20;;;;;;;1.08;58.18;95921.22;5088015;28;20316;-76
2022/01/19 10:35:23;;;;;;;22.98;7.57;;;;;;;1.01;57.78;95926.69;5090545;28;20230;-77
2022/01/19 10:38:06;;;;;;;5.20;2.28;;;;;;;0.88;57.71;95918.13;5090839;28;20252;-77
2022/01/19 10:40:34;;;;;;;3.25;2.15;;;;;;;1.11;57.99;95911.91;5090558;28;20279;-77
2022/01/19 10:43:01;;;;;;;8.00;3.28;;;;;;;1.42;57.20;95904.25;5090144;28;20642;-77
2022/01/19 10:45:31;;;;;;;5.70;2.70;;;;;;;1.13;57.00;95907.97;5089978;28;20259;-76
2022/01/19 10:48:00;;;;;;;4.75;2.70;;;;;;;1.15;57.73;95905.88;5090191;28;20301;-78
2022/01/19 10:50:31;;;;;;;5.95;3.35;;;;;;;0.99;57.80;95890.59;5090687;28;20198;-78
2022/01/19 10:53:00;;;;;;;4.93;3.05;;;;;;;1.22;57.53;95885.22;5090489;28;20759;-77
2022/01/19 10:55:30;;;;;;;3.72;2.40;;;;;;;1.36;56.73;95865.19;5092830;28;20225;-77
2022/01/19 10:57:59;;;;;;;9.50;2.53;;;;;;;1.61;56.69;95866.69;5094791;28;20259;-77
2022/01/19 11:00:29;;;;;;;3.70;2.25;;;;;;;1.73;55.79;95862.09;5087903;28;20245;-75
2022/01/19 11:02:59;;;;;;;2.75;1.33;;;;;;;1.70;55.50;95857.22;5074156;28;20230;-77
2022/01/19 11:05:42;;;;;;;9.23;2.00;;;;;;;1.40;56.59;95847.63;5093122;28;20205;-77
2022/01/19 11:08:09;;;;;;;3.95;2.30;;;;;;;1.51;56.62;95850.47;5091247;28;20229;-76
2022/01/19 11:10:36;;;;;;;8.85;3.25;;;;;;;1.53;57.40;95845.69;5082677;28;20844;-74
2022/01/19 11:13:05;;;;;;;15.88;7.00;;;;;;;1.60;56.29;95843.72;5094257;28;20213;-77
2022/01/19 11:15:32;;;;;;;6.25;2.67;;;;;;;1.09;58.25;95831.31;5093513;28;20234;-76
2022/01/19 11:18:01;;;;;;;5.63;3.28;;;;;;;1.24;58.63;95829.72;5094144;28;20213;-77
2022/01/19 11:20:29;;;;;;;8.07;3.72;;;;;;;1.42;58.55;95826.03;5094297;28;20202;-79
2022/01/19 11:23:25;;;;;;;3.05;2.00;;;;;;;1.32;57.63;95836.53;5094057;28;20266;-75
2022/01/19 11:25:57;;;;;;;6.47;2.25;;;;;;;1.20;58.64;95828.59;5094152;28;20183;-78
2022/01/19 11:28:27;;;;;;;8.57;4.05;;;;;;;1.29;58.72;95827.16;5093195;28;20214;-78
2022/01/19 11:30:54;;;;;;;11.55;5.18;;;;;;;1.23;59.47;95819.31;5085750;28;20203;-78
2022/01/19 11:33:26;;;;;;;6.70;2.28;;;;;;;1.20;59.45;95812.59;5077936;28;20319;-77
2022/01/19 11:35:55;;;;;;;2.60;2.00;;;;;;;1.34;58.91;95819.25;5086916;28;20242;-78
2022/01/19 11:38:34;;;;;;;6.10;2.88;;;;;;;1.35;58.73;95831.53;5091009;28;20194;-78
2022/01/19 11:41:03;;;;;;;5.97;2.60;;;;;;;1.56;58.29;95831.88;5090968;28;20206;-76
2022/01/19 11:43:31;;;;;;;9.80;4.03;;;;;;;1.89;59.41;95815.88;5092876;28;20303;-77
2022/01/19 11:46:00;;;;;;;2.50;1.85;;;;;;;1.84;57.65;95818.47;5073019;28;20207;-77
2022/01/19 11:48:31;;;;;;;7.47;3.95;;;;;;;1.76;58.24;95810.88;5071095;28;20838;-76
2022/01/19 11:51:25;;;;;;;7.68;3.20;;;;;;;1.82;57.86;95804.53;5083129;28;20202;-76
2022/01/19 11:54:10;;;;;;;9.00;3.92;;;;;;;1.59;58.17;95799.34;5092702;28;20195;-76
2022/01/19 11:57:06;;;;;;;6.60;3.58;;;;;;;1.69;58.31;95799.53;5093306;28;20218;-79
2022/01/19 11:59:55;;;;;;;3.33;1.55;;;;;;;1.79;57.82;95795.13;5081651;28;20227;-79
2022/01/19 12:02:40;;;;;;;6.85;3.25;;;;;;;1.74;57.35;95796.94;5080827;28;20285;-79
2022/01/19 12:05:37;;;;;;;5.00;2.47;;;;;;;1.62;57.93;95793.53;5092861;28;20195;-77
2022/01/19 12:08:21;;;;;;;7.55;3.42;;;;;;;1.76;58.01;95789.50;5088114;28;20202;-77
2022/01/19 12:10:49;;;;;;;14.15;4.00;;;;;;;2.04;57.81;95794.75;5093177;28;20222;-77
2022/01/19 12:13:33;;;;;;;11.25;4.95;;;;;;;1.75;58.06;95793.22;5092318;28;20218;-77
2022/01/19 12:16:05;;;;;;;10.40;3.80;;;;;;;1.98;57.41;95782.34;5092737;28;20229;-79
2022/01/19 12:18:45;;;;;;;3.33;2.15;;;;;;;1.92;57.18;95775.28;5078969;28;20199;-78
2022/01/19 12:21:15;;;;;;;6.88;2.90;;;;;;;1.80;57.31;95774.59;5092759;28;20645;-76
2022/01/19 12:23:44;;;;;;;8.35;2.80;;;;;;;1.99;57.40;95762.59;5092980;28;20224;-75
2022/01/19 12:26:12;;;;;;;7.47;3.20;;;;;;;1.65;57.80;95766.31;5092708;28;20606;-77
2022/01/19 12:28:48;;;;;;;5.63;2.92;;;;;;;1.72;58.19;95772.34;5092956;28;20202;-77
2022/01/19 12:31:35;;;;;;;3.80;2.42;;;;;;;1.82;57.67;95772.47;5088086;28;20218;-77
2022/01/19 12:34:23;;;;;;;3.65;2.60;;;;;;;1.81;58.50;95760.16;5085608;28;20238;-75
2022/01/19 12:36:55;;;;;;;9.23;3.65;;;;;;;1.97;57.96;95747.84;5092343;28;20221;-78
2022/01/19 12:39:45;;;;;;;10.77;4.68;;;;;;;1.87;57.86;95743.19;5091882;28;20224;-78
2022/01/19 12:42:18;;;;;;;10.18;4.45;;;;;;;2.06;57.90;95752.50;5089374;28;20222;-77
2022/01/19 12:44:49;;;;;;;6.07;2.75;;;;;;;2.00;57.84;95747.38;5092724;28;20263;-78
2022/01/19 12:47:44;;;;;;;7.85;3.42;;;;;;;1.87;58.30;95748.53;5092259;28;20230;-77
2022/01/19 12:50:40;;;;;;;8.75;4.22;;;;;;;1.95;57.97;95736.59;5091934;28;20205;-77
2022/01/19 12:53:13;;;;;;;9.77;4.38;;;;;;;1.93;58.10;95736.84;5092252;28;20206;-77
2022/01/19 12:55:42;;;;;;;7.88;3.88;;;;;;;2.77;74.02;95731.19;5094422;28;20214;-86
2022/01/19 12:58:13;;;;;;;3.53;2.17;;;;;;;2.12;58.81;95730.16;5098848;28;20321;-87
2022/01/19 13:00:41;;;;;;;8.38;4.25;;;;;;;2.47;63.88;95721.78;5081094;28;20247;-83
2022/01/19 13:03:18;;;;;;;8.18;3.58;;;;;;;2.33;58.32;95709.03;5092925;28;20213;-83